createdAt,value
2023-02-12T00:01:13.682Z,6.40
2023-02-12T00:03:41.217Z,6.50
2023-02-12T00:06:10.675Z,6.20
2023-02-12T00:08:38.859Z,6.00
2023-02-12T00:11:16.129Z,6.20
2023-02-12T00:13:43.428Z,6.20
2023-02-12T00:16:15.456Z,5.50
2023-02-12T00:18:43.242Z,5.70
2023-02-12T00:21:10.419Z,6.00
2023-02-12T00:23:39.288Z,6.30
2023-02-12T00:26:09.277Z,6.20
2023-02-12T00:28:36.947Z,6.30
2023-02-12T00:31:28.728Z,6.50
2023-02-12T00:33:55.822Z,6.30
2023-02-12T00:36:28.198Z,6.40
2023-02-12T00:38:56.581Z,6.60
2023-02-12T00:41:23.951Z,6.80
2023-02-12T00:43:51.371Z,6.90
2023-02-12T00:46:18.780Z,6.80
2023-02-12T00:48:45.675Z,6.60
2023-02-12T00:51:12.641Z,6.80
2023-02-12T00:53:39.697Z,6.80
2023-02-12T00:56:06.683Z,6.50
2023-02-12T00:58:33.547Z,6.10
2023-02-12T01:01:00.485Z,6.30
2023-02-12T01:03:27.600Z,6.40
2023-02-12T01:05:54.853Z,6.40
2023-02-12T01:08:22.392Z,6.30
2023-02-12T01:10:58.361Z,6.30
2023-02-12T01:13:25.974Z,6.40
2023-02-12T01:16:12.684Z,6.00
2023-02-12T01:18:40.050Z,6.20
2023-02-12T01:21:20.487Z,6.30
2023-02-12T01:23:47.732Z,6.40
2023-02-12T01:26:16.201Z,6.20
2023-02-12T01:28:45.556Z,6.50
2023-02-12T01:31:18.779Z,6.50
2023-02-12T01:33:50.119Z,6.50
2023-02-12T01:36:17.032Z,6.30
2023-02-12T01:38:43.951Z,6.10
2023-02-12T01:41:15.391Z,6.20
2023-02-12T01:43:42.469Z,6.00
2023-02-12T01:46:14.139Z,5.70
2023-02-12T01:48:45.817Z,5.30
2023-02-12T01:51:18.042Z,5.80
2023-02-12T01:53:53.889Z,5.80
2023-02-12T01:56:22.436Z,5.80
2023-02-12T01:58:52.863Z,6.30
2023-02-12T02:01:29.676Z,6.20
2023-02-12T02:04:07.553Z,6.10
2023-02-12T02:06:56.779Z,6.00
2023-02-12T02:09:24.310Z,5.90
2023-02-12T02:12:09.436Z,6.20
2023-02-12T02:14:37.513Z,6.20
2023-02-12T02:17:35.126Z,6.60
2023-02-12T02:20:17.128Z,6.60
2023-02-12T02:23:10.996Z,6.40
2023-02-12T02:26:22.908Z,6.50
2023-02-12T02:28:55.689Z,6.60
2023-02-12T02:31:41.580Z,6.70
2023-02-12T02:34:49.739Z,7.00
2023-02-12T02:37:28.265Z,6.70
2023-02-12T02:40:14.980Z,6.90
2023-02-12T02:42:57.741Z,6.80
2023-02-12T02:45:41.610Z,6.40
2023-02-12T02:48:28.985Z,6.60
2023-02-12T02:51:26.283Z,6.80
2023-02-12T02:54:22.126Z,7.00
2023-02-12T02:56:52.645Z,6.80
2023-02-12T02:59:27.151Z,6.80
2023-02-12T03:02:05.050Z,6.90
2023-02-12T03:04:48.881Z,6.60
2023-02-12T03:07:34.563Z,5.90
2023-02-12T03:10:25.828Z,6.40
2023-02-12T03:13:07.684Z,6.50
2023-02-12T03:15:47.707Z,6.60
2023-02-12T03:18:24.616Z,6.30
2023-02-12T03:20:59.545Z,6.60
2023-02-12T03:23:33.388Z,6.50
2023-02-12T03:26:08.807Z,6.40
2023-02-12T03:28:38.412Z,6.60
2023-02-12T03:31:17.060Z,6.80
2023-02-12T03:34:31.260Z,6.80
2023-02-12T03:37:09.742Z,6.70
2023-02-12T03:40:03.073Z,6.80
2023-02-12T03:42:54.323Z,6.80
2023-02-12T03:45:54.594Z,6.80
2023-02-12T03:48:33.286Z,6.70
2023-02-12T03:51:14.862Z,6.50
2023-02-12T03:53:42.883Z,6.60
2023-02-12T03:56:37.893Z,6.50
2023-02-12T03:59:05.620Z,6.70
2023-02-12T04:01:34.376Z,6.70
2023-02-12T04:04:05.696Z,6.50
2023-02-12T04:06:33.006Z,6.70
2023-02-12T04:09:06.462Z,6.70
2023-02-12T04:11:59.755Z,6.40
2023-02-12T04:14:49.499Z,6.60
2023-02-12T04:17:47.184Z,6.30
2023-02-12T04:20:42.030Z,6.30
2023-02-12T04:24:04.583Z,6.60
2023-02-12T04:26:55.626Z,6.30
2023-02-12T04:29:49.717Z,6.20
2023-02-12T04:32:29.459Z,6.10
2023-02-12T04:35:02.528Z,6.30
2023-02-12T04:37:39.594Z,6.20
2023-02-12T04:40:13.446Z,6.10
2023-02-12T04:42:49.681Z,6.30
2023-02-12T04:45:28.113Z,6.50
2023-02-12T04:47:54.992Z,6.60
2023-02-12T04:50:22.377Z,6.80
2023-02-12T04:52:49.390Z,6.90
2023-02-12T04:55:16.391Z,6.70
2023-02-12T04:57:43.263Z,6.70
2023-02-12T05:00:14.129Z,6.60
2023-02-12T05:02:41.132Z,6.60
2023-02-12T05:05:08.284Z,6.60
2023-02-12T05:07:35.166Z,6.40
2023-02-12T05:10:02.098Z,6.40
2023-02-12T05:12:29.013Z,6.40
2023-02-12T05:14:55.832Z,6.60
2023-02-12T05:17:24.601Z,6.50
2023-02-12T05:19:51.802Z,6.70
2023-02-12T05:22:18.716Z,6.90
2023-02-12T05:24:45.629Z,6.70
2023-02-12T05:27:12.691Z,6.70
2023-02-12T05:29:39.729Z,6.40
2023-02-12T05:32:07.087Z,6.40
2023-02-12T05:34:34.712Z,6.40
2023-02-12T05:37:01.608Z,6.50
2023-02-12T05:39:28.545Z,6.40
2023-02-12T05:41:55.388Z,6.50
2023-02-12T05:44:22.244Z,6.60
2023-02-12T05:46:49.106Z,6.40
2023-02-12T05:49:15.950Z,6.60
2023-02-12T05:51:42.837Z,6.60
2023-02-12T05:54:10.864Z,6.70
2023-02-12T05:56:44.589Z,6.40
2023-02-12T05:59:23.432Z,6.10
2023-02-12T06:01:52.610Z,6.30
2023-02-12T06:04:23.733Z,6.30
2023-02-12T06:06:55.877Z,6.30
2023-02-12T06:09:23.616Z,6.40
2023-02-12T06:11:50.452Z,6.30
2023-02-12T06:14:19.751Z,6.30
2023-02-12T06:16:50.157Z,6.30
2023-02-12T06:19:18.227Z,6.50
2023-02-12T06:21:45.648Z,6.60
2023-02-12T06:24:14.770Z,6.60
2023-02-12T06:26:42.050Z,6.20
2023-02-12T06:29:08.972Z,6.50
2023-02-12T06:31:37.665Z,6.70
2023-02-12T06:34:07.874Z,6.70
2023-02-12T06:36:37.590Z,6.80
2023-02-12T06:39:05.106Z,6.80
2023-02-12T06:41:31.953Z,6.70
2023-02-12T06:43:58.862Z,6.60
2023-02-12T06:46:26.473Z,6.90
2023-02-12T06:48:55.614Z,6.90
2023-02-12T06:51:23.636Z,7.00
2023-02-12T06:53:52.513Z,6.90
2023-02-12T06:56:21.291Z,6.90
2023-02-12T06:58:58.142Z,6.90
2023-02-12T07:01:29.636Z,6.80
2023-02-12T07:04:02.490Z,7.00
2023-02-12T07:06:31.889Z,7.10
2023-02-12T07:08:59.184Z,7.00
2023-02-12T07:11:28.754Z,7.00
2023-02-12T07:13:55.982Z,6.90
2023-02-12T07:16:23.629Z,7.00
2023-02-12T07:18:50.874Z,7.10
2023-02-12T07:21:18.656Z,6.80
2023-02-12T07:23:51.634Z,6.90
2023-02-12T07:26:21.302Z,7.10
2023-02-12T07:28:49.681Z,7.00
2023-02-12T07:31:20.133Z,6.80
2023-02-12T07:33:48.634Z,7.10
2023-02-12T07:36:18.752Z,7.00
2023-02-12T07:38:46.040Z,7.20
2023-02-12T07:41:23.346Z,7.20
2023-02-12T07:43:56.328Z,7.10
2023-02-12T07:46:30.042Z,7.00
2023-02-12T07:48:59.449Z,7.10
2023-02-12T07:51:27.554Z,7.10
2023-02-12T07:53:55.364Z,7.00
2023-02-12T07:56:25.820Z,7.10
2023-02-12T07:58:53.912Z,7.20
2023-02-12T08:01:28.740Z,7.20
2023-02-12T08:04:03.058Z,7.30
2023-02-12T08:06:33.283Z,7.60
2023-02-12T08:09:03.270Z,7.90
2023-02-12T08:11:31.698Z,8.10
2023-02-12T08:13:59.598Z,8.40
2023-02-12T08:16:28.754Z,8.70
2023-02-12T08:19:02.394Z,8.50
2023-02-12T08:21:34.565Z,9.00
2023-02-12T08:24:01.563Z,9.00
2023-02-12T08:26:35.655Z,8.50
2023-02-12T08:29:12.985Z,8.60
2023-02-12T08:31:43.520Z,8.70
2023-02-12T08:34:23.500Z,9.00
2023-02-12T08:36:54.070Z,8.70
2023-02-12T08:39:21.897Z,8.70
2023-02-12T08:41:49.474Z,8.90
2023-02-12T08:44:17.083Z,8.40
2023-02-12T08:46:48.033Z,7.50
2023-02-12T08:49:20.105Z,7.10
2023-02-12T08:51:50.312Z,7.70
2023-02-12T08:54:27.004Z,7.30
2023-02-12T08:57:02.575Z,7.90
2023-02-12T08:59:29.859Z,8.00
2023-02-12T09:01:56.821Z,8.00
2023-02-12T09:04:27.002Z,7.80
2023-02-12T09:06:55.081Z,7.50
2023-02-12T09:09:22.416Z,7.20
2023-02-12T09:11:49.817Z,7.20
2023-02-12T09:14:18.896Z,7.30
2023-02-12T09:16:46.087Z,7.10
2023-02-12T09:19:14.349Z,7.00
2023-02-12T09:21:42.299Z,7.00
2023-02-12T09:24:09.740Z,7.00
2023-02-12T09:26:36.638Z,7.10
2023-02-12T09:29:05.070Z,7.20
2023-02-12T09:31:33.234Z,7.40
2023-02-12T09:34:06.189Z,7.50
2023-02-12T09:36:33.688Z,7.90
2023-02-12T09:39:00.666Z,8.40
2023-02-12T09:41:54.117Z,8.40
2023-02-12T09:44:41.663Z,8.30
2023-02-12T09:47:20.530Z,8.20
2023-02-12T09:50:11.141Z,8.40
2023-02-12T09:52:38.399Z,8.60
2023-02-12T09:55:05.900Z,8.60
2023-02-12T09:57:37.984Z,8.80
2023-02-12T10:00:16.212Z,8.30
2023-02-12T10:02:43.212Z,8.20
2023-02-12T10:05:35.452Z,8.50
2023-02-12T10:08:38.973Z,9.10
2023-02-12T10:11:39.456Z,8.70
2023-02-12T10:14:18.070Z,8.80
2023-02-12T10:17:34.766Z,9.60
2023-02-12T10:20:35.628Z,9.70
2023-02-12T10:23:25.478Z,9.60
2023-02-12T10:25:56.985Z,9.50
2023-02-12T10:28:31.725Z,9.50
2023-02-12T10:31:07.207Z,9.70
2023-02-12T10:33:48.968Z,9.70
2023-02-12T10:36:44.756Z,10.00
2023-02-12T10:39:14.440Z,10.60
2023-02-12T10:41:53.742Z,10.20
2023-02-12T10:44:20.732Z,10.10
2023-02-12T10:46:47.542Z,11.20
2023-02-12T10:49:18.537Z,11.20
2023-02-12T10:52:23.195Z,11.70
2023-02-12T10:54:50.153Z,11.60
2023-02-12T10:57:25.869Z,11.80
2023-02-12T10:59:57.429Z,11.60
2023-02-12T11:02:33.331Z,11.70
2023-02-12T11:05:25.737Z,12.10
2023-02-12T11:07:53.023Z,12.40
2023-02-12T11:10:32.015Z,12.50
2023-02-12T11:13:00.558Z,13.30
2023-02-12T11:15:36.779Z,13.80
2023-02-12T11:18:08.589Z,13.40
2023-02-12T11:20:43.549Z,12.90
2023-02-12T11:23:37.860Z,14.00
2023-02-12T11:26:20.314Z,14.20
2023-02-12T11:29:17.709Z,13.50
2023-02-12T11:32:01.246Z,13.50
2023-02-12T11:34:29.903Z,13.00
2023-02-12T11:36:57.975Z,13.20
2023-02-12T11:39:37.783Z,14.40
2023-02-12T11:42:17.772Z,15.40
2023-02-12T11:44:58.302Z,13.90
2023-02-12T11:47:33.838Z,13.80
2023-02-12T11:50:19.255Z,14.10
2023-02-12T11:52:50.496Z,14.60
2023-02-12T11:55:21.856Z,15.00
2023-02-12T11:57:50.050Z,14.70
2023-02-12T12:00:26.118Z,14.00
2023-02-12T12:03:20.654Z,14.00
2023-02-12T12:05:56.785Z,13.50
2023-02-12T12:08:33.798Z,14.00
2023-02-12T12:11:08.161Z,13.70
2023-02-12T12:13:39.356Z,13.20
2023-02-12T12:16:30.301Z,13.00
2023-02-12T12:19:21.989Z,12.80
2023-02-12T12:22:08.969Z,13.10
2023-02-12T12:24:45.766Z,12.50
2023-02-12T12:27:50.538Z,12.50
2023-02-12T12:30:50.659Z,12.40
2023-02-12T12:33:20.877Z,12.70
2023-02-12T12:36:03.017Z,12.60
2023-02-12T12:39:01.430Z,12.20
2023-02-12T12:41:36.413Z,12.50
2023-02-12T12:44:12.550Z,12.20
2023-02-12T12:47:01.230Z,11.90
2023-02-12T12:49:49.363Z,12.50
2023-02-12T12:53:04.147Z,12.60
2023-02-12T12:56:13.587Z,12.30
2023-02-12T12:58:56.390Z,13.10
2023-02-12T13:01:57.037Z,12.40
2023-02-12T13:04:48.865Z,12.20
2023-02-12T13:07:35.393Z,12.60
2023-02-12T13:10:21.467Z,12.70
2023-02-12T13:13:12.833Z,13.40
2023-02-12T13:15:57.041Z,13.10
2023-02-12T13:18:51.464Z,13.30
2023-02-12T13:21:32.627Z,13.10
2023-02-12T13:24:27.688Z,13.50
2023-02-12T13:27:06.456Z,13.10
2023-02-12T13:29:49.535Z,13.90
2023-02-12T13:32:27.325Z,13.70
2023-02-12T13:34:56.158Z,13.60
2023-02-12T13:37:38.354Z,13.10
2023-02-12T13:40:08.660Z,13.20
2023-02-12T13:42:56.756Z,13.70
2023-02-12T13:45:48.715Z,13.10
2023-02-12T13:48:40.529Z,14.20
2023-02-12T13:51:17.638Z,14.00
2023-02-12T13:54:12.211Z,14.00
2023-02-12T13:56:45.658Z,14.00
2023-02-12T13:59:34.485Z,13.90
2023-02-12T14:02:18.402Z,14.30
2023-02-12T14:04:56.858Z,14.10
2023-02-12T14:07:25.523Z,14.10
2023-02-12T14:09:52.737Z,13.90
2023-02-12T14:12:25.764Z,14.30
2023-02-12T14:15:05.072Z,14.40
2023-02-12T14:17:32.234Z,14.50
2023-02-12T14:20:21.479Z,14.90
2023-02-12T14:22:48.642Z,14.30
2023-02-12T14:25:25.025Z,14.50
2023-02-12T14:28:18.323Z,14.20
2023-02-12T14:30:45.688Z,14.10
2023-02-12T14:33:25.195Z,14.40
2023-02-12T14:36:33.618Z,13.90
2023-02-12T14:39:04.874Z,14.10
2023-02-12T14:41:38.806Z,13.90
2023-02-12T14:44:18.314Z,13.80
2023-02-12T14:46:53.077Z,13.90
2023-02-12T14:49:42.302Z,13.60
2023-02-12T14:52:12.524Z,13.30
2023-02-12T14:54:47.422Z,13.50
2023-02-12T14:57:22.965Z,13.80
2023-02-12T14:59:50.659Z,13.30
2023-02-12T15:02:27.369Z,13.50
2023-02-12T15:04:58.458Z,13.10
2023-02-12T15:07:41.283Z,12.50
2023-02-12T15:10:15.563Z,12.80
2023-02-12T15:13:23.638Z,13.40
2023-02-12T15:16:09.144Z,12.90
2023-02-12T15:18:59.368Z,12.60
2023-02-12T15:21:31.673Z,12.80
2023-02-12T15:24:13.701Z,12.40
2023-02-12T15:26:52.723Z,12.30
2023-02-12T15:29:24.094Z,12.10
2023-02-12T15:31:59.634Z,12.00
2023-02-12T15:34:32.834Z,11.90
2023-02-12T15:37:01.973Z,12.40
2023-02-12T15:39:50.080Z,12.00
2023-02-12T15:42:53.548Z,12.10
2023-02-12T15:45:22.222Z,12.00
2023-02-12T15:47:59.500Z,11.60
2023-02-12T15:50:27.184Z,11.30
2023-02-12T15:52:55.218Z,11.50
2023-02-12T15:55:25.813Z,11.80
2023-02-12T15:57:55.205Z,11.30
2023-02-12T16:00:43.229Z,11.20
2023-02-12T16:03:27.806Z,11.40
2023-02-12T16:06:05.631Z,11.20
2023-02-12T16:08:34.016Z,10.90
2023-02-12T16:11:13.725Z,10.90
2023-02-12T16:14:02.006Z,10.70
2023-02-12T16:16:31.391Z,10.50
2023-02-12T16:19:18.727Z,10.40
2023-02-12T16:21:50.790Z,10.30
2023-02-12T16:24:58.893Z,9.90
2023-02-12T16:27:30.105Z,10.10
2023-02-12T16:30:01.526Z,9.40
2023-02-12T16:32:34.435Z,10.00
2023-02-12T16:35:26.427Z,10.00
2023-02-12T16:38:23.575Z,9.90
2023-02-12T16:41:10.717Z,10.20
2023-02-12T16:43:38.066Z,9.40
2023-02-12T16:46:06.493Z,9.70
2023-02-12T16:48:58.907Z,9.60
2023-02-12T16:51:31.428Z,9.10
2023-02-12T16:54:01.309Z,9.50
2023-02-12T16:56:31.443Z,9.70
2023-02-12T16:58:59.873Z,9.40
2023-02-12T17:01:49.798Z,9.40
2023-02-12T17:04:17.094Z,9.50
2023-02-12T17:06:44.334Z,9.80
2023-02-12T17:09:11.648Z,9.70
2023-02-12T17:11:38.868Z,10.10
2023-02-12T17:14:06.127Z,10.00
2023-02-12T17:16:33.429Z,9.80
2023-02-12T17:19:00.913Z,10.10
2023-02-12T17:21:38.011Z,10.00
2023-02-12T17:24:24.752Z,9.40
2023-02-12T17:26:52.828Z,9.80
2023-02-12T17:29:22.554Z,9.60
2023-02-12T17:31:50.200Z,9.50
2023-02-12T17:34:17.633Z,9.70
2023-02-12T17:36:44.870Z,9.50
2023-02-12T17:39:13.938Z,8.80
2023-02-12T17:41:41.516Z,9.00
2023-02-12T17:44:09.161Z,9.00
2023-02-12T17:46:36.372Z,8.80
2023-02-12T17:49:04.336Z,8.60
2023-02-12T17:51:31.937Z,8.40
2023-02-12T17:53:59.215Z,9.30
2023-02-12T17:56:26.478Z,9.00
2023-02-12T17:58:53.893Z,9.30
2023-02-12T18:01:22.660Z,9.30
2023-02-12T18:03:52.707Z,9.60
2023-02-12T18:06:30.120Z,9.80
2023-02-12T18:08:58.272Z,9.70
2023-02-12T18:11:25.862Z,9.50
2023-02-12T18:13:53.980Z,9.40
2023-02-12T18:16:21.772Z,8.40
2023-02-12T18:18:49.194Z,8.30
2023-02-12T18:21:17.436Z,8.20
2023-02-12T18:23:45.220Z,8.40
2023-02-12T18:26:14.749Z,9.10
2023-02-12T18:28:42.471Z,9.20
2023-02-12T18:31:10.210Z,9.50
2023-02-12T18:33:38.025Z,9.50
2023-02-12T18:36:17.069Z,8.70
2023-02-12T18:38:45.214Z,9.20
2023-02-12T18:41:21.380Z,8.40
2023-02-12T18:43:48.983Z,9.00
2023-02-12T18:46:19.214Z,9.10
2023-02-12T18:48:46.666Z,9.20
2023-02-12T18:51:16.569Z,9.50
2023-02-12T18:53:43.942Z,9.70
2023-02-12T18:56:12.191Z,9.60
2023-02-12T18:58:40.100Z,9.70
2023-02-12T19:01:18.945Z,9.40
2023-02-12T19:03:48.648Z,9.10
2023-02-12T19:06:16.328Z,9.40
2023-02-12T19:08:43.549Z,9.30
2023-02-12T19:11:11.746Z,9.10
2023-02-12T19:13:39.220Z,9.50
2023-02-12T19:16:11.623Z,9.30
2023-02-12T19:18:38.938Z,8.90
2023-02-12T19:21:14.178Z,9.20
2023-02-12T19:23:41.459Z,9.10
2023-02-12T19:26:14.888Z,9.00
2023-02-12T19:28:42.896Z,9.60
2023-02-12T19:31:15.635Z,9.40
2023-02-12T19:33:43.807Z,8.70
2023-02-12T19:36:13.033Z,8.90
2023-02-12T19:38:40.548Z,8.70
2023-02-12T19:41:10.353Z,9.00
2023-02-12T19:43:37.972Z,9.10
2023-02-12T19:46:07.108Z,8.60
2023-02-12T19:48:35.309Z,8.80
2023-02-12T19:51:03.226Z,8.90
2023-02-12T19:53:30.752Z,9.00
2023-02-12T19:56:04.665Z,8.30
2023-02-12T19:58:32.087Z,8.60
2023-02-12T20:00:59.770Z,8.20
2023-02-12T20:03:29.824Z,8.40
2023-02-12T20:06:01.838Z,8.70
2023-02-12T20:08:29.259Z,8.60
2023-02-12T20:10:56.804Z,8.60
2023-02-12T20:13:24.170Z,9.00
2023-02-12T20:15:51.438Z,9.10
2023-02-12T20:18:18.731Z,9.30
2023-02-12T20:20:45.951Z,9.20
2023-02-12T20:23:13.198Z,9.20
2023-02-12T20:25:44.590Z,8.80
2023-02-12T20:28:11.810Z,9.00
2023-02-12T20:30:43.167Z,9.00
2023-02-12T20:33:10.364Z,8.90
2023-02-12T20:35:38.023Z,8.60
2023-02-12T20:38:06.165Z,8.70
2023-02-12T20:40:33.734Z,8.80
2023-02-12T20:43:01.156Z,9.00
2023-02-12T20:45:28.426Z,9.00
2023-02-12T20:47:56.358Z,9.20
2023-02-12T20:50:23.646Z,9.40
2023-02-12T20:52:51.041Z,9.30
2023-02-12T20:55:18.336Z,9.50
2023-02-12T20:57:45.578Z,9.70
2023-02-12T21:00:13.708Z,9.30
2023-02-12T21:02:40.963Z,9.80
2023-02-12T21:05:09.397Z,9.80
2023-02-12T21:07:36.653Z,9.80
2023-02-12T21:10:04.247Z,9.40
2023-02-12T21:12:31.541Z,9.50
2023-02-12T21:14:58.773Z,9.00
2023-02-12T21:17:26.225Z,9.30
2023-02-12T21:19:53.414Z,9.60
2023-02-12T21:22:21.353Z,9.40
2023-02-12T21:24:48.536Z,9.40
2023-02-12T21:27:15.975Z,9.40
2023-02-12T21:29:43.163Z,9.30
2023-02-12T21:32:10.457Z,9.50
2023-02-12T21:34:37.766Z,9.60
2023-02-12T21:37:04.967Z,9.50
2023-02-12T21:39:32.989Z,9.30
2023-02-12T21:42:02.972Z,9.40
2023-02-12T21:44:32.278Z,9.30
2023-02-12T21:47:00.129Z,9.40
2023-02-12T21:49:28.177Z,9.40
2023-02-12T21:52:02.176Z,9.40
2023-02-12T21:54:30.106Z,9.30
2023-02-12T21:56:57.710Z,9.20
2023-02-12T21:59:25.006Z,9.10
2023-02-12T22:01:54.073Z,9.20
2023-02-12T22:04:21.227Z,9.40
2023-02-12T22:06:50.372Z,9.50
2023-02-12T22:09:19.668Z,9.50
2023-02-12T22:11:47.236Z,9.50
2023-02-12T22:14:16.669Z,9.40
2023-02-12T22:16:44.314Z,9.40
2023-02-12T22:19:11.658Z,9.40
2023-02-12T22:21:40.325Z,9.40
2023-02-12T22:24:09.686Z,9.40
2023-02-12T22:26:37.296Z,9.40
2023-02-12T22:29:10.639Z,9.00
2023-02-12T22:31:39.465Z,8.70
2023-02-12T22:34:09.956Z,8.20
2023-02-12T22:36:38.747Z,8.60
2023-02-12T22:39:06.488Z,8.30
2023-02-12T22:41:33.901Z,8.10
2023-02-12T22:44:02.546Z,8.20
2023-02-12T22:46:29.770Z,8.10
2023-02-12T22:48:56.990Z,8.10
2023-02-12T22:51:27.080Z,8.40
2023-02-12T22:53:54.930Z,8.50
2023-02-12T22:56:22.472Z,8.60
2023-02-12T22:58:53.322Z,8.80
2023-02-12T23:01:21.127Z,8.80
2023-02-12T23:03:48.412Z,8.80
2023-02-12T23:06:17.924Z,8.40
2023-02-12T23:08:45.358Z,8.40
2023-02-12T23:11:12.850Z,7.90
2023-02-12T23:13:40.005Z,8.20
2023-02-12T23:16:07.243Z,8.00
2023-02-12T23:18:34.511Z,8.30
2023-02-12T23:21:02.020Z,8.00
2023-02-12T23:23:29.245Z,8.00
2023-02-12T23:25:56.886Z,8.00
2023-02-12T23:28:24.681Z,8.00
2023-02-12T23:30:52.329Z,8.10
2023-02-12T23:33:20.206Z,8.20
2023-02-12T23:35:48.294Z,8.20
2023-02-12T23:38:16.544Z,8.30
2023-02-12T23:40:44.042Z,8.20
2023-02-12T23:43:11.387Z,8.40
2023-02-12T23:45:38.623Z,8.20
2023-02-12T23:48:06.064Z,8.40
2023-02-12T23:50:33.342Z,8.50
2023-02-12T23:53:00.591Z,8.50
2023-02-12T23:55:28.030Z,8.40
2023-02-12T23:57:55.243Z,8.40
